createdAt,value
2018-08-09T00:01:07.428Z,16.10
2018-08-09T00:03:36.171Z,12.53
2018-08-09T00:06:04.998Z,15.60
2018-08-09T00:08:33.768Z,13.70
2018-08-09T00:11:02.516Z,16.10
2018-08-09T00:13:31.150Z,15.43
2018-08-09T00:15:59.926Z,17.47
2018-08-09T00:18:28.681Z,20.30
2018-08-09T00:20:58.108Z,18.43
2018-08-09T00:23:27.039Z,11.87
2018-08-09T00:25:55.777Z,19.30
2018-08-09T00:28:24.475Z,15.13
2018-08-09T00:30:53.306Z,16.00
2018-08-09T00:33:22.034Z,25.67
2018-08-09T00:35:50.889Z,14.87
2018-08-09T00:38:19.590Z,21.80
2018-08-09T00:40:48.322Z,13.23
2018-08-09T00:43:17.146Z,17.43
2018-08-09T00:45:46.009Z,19.10
2018-08-09T00:48:15.029Z,17.97
2018-08-09T00:50:43.778Z,20.30
2018-08-09T00:53:12.489Z,13.57
2018-08-09T00:55:41.403Z,15.83
2018-08-09T00:58:10.192Z,18.10
2018-08-09T01:00:38.926Z,20.40
2018-08-09T01:03:07.615Z,16.40
2018-08-09T01:05:36.474Z,15.40
2018-08-09T01:08:05.117Z,15.70
2018-08-09T01:10:33.773Z,17.17
2018-08-09T01:13:02.401Z,22.23
2018-08-09T01:15:31.081Z,20.03
2018-08-09T01:17:59.833Z,13.73
2018-08-09T01:20:28.471Z,14.87
2018-08-09T01:22:57.457Z,18.40
2018-08-09T01:25:26.617Z,14.80
2018-08-09T01:27:55.382Z,15.53
2018-08-09T01:30:24.662Z,14.70
2018-08-09T01:32:53.548Z,19.80
2018-08-09T01:35:22.194Z,19.63
2018-08-09T01:37:50.894Z,23.93
2018-08-09T01:40:19.555Z,17.33
2018-08-09T01:42:59.477Z,16.50
2018-08-09T01:45:28.110Z,20.07
2018-08-09T01:47:56.852Z,23.00
2018-08-09T01:50:25.687Z,14.97
2018-08-09T01:52:54.377Z,11.43
2018-08-09T01:55:23.302Z,16.93
2018-08-09T01:57:52.098Z,15.63
2018-08-09T02:00:20.931Z,20.10
2018-08-09T02:02:49.654Z,21.60
2018-08-09T02:05:18.322Z,22.33
2018-08-09T02:07:47.241Z,13.87
2018-08-09T02:10:16.082Z,20.17
2018-08-09T02:12:44.881Z,15.97
2018-08-09T02:15:13.647Z,14.33
2018-08-09T02:17:42.300Z,14.30
2018-08-09T02:20:11.284Z,17.10
2018-08-09T02:22:39.922Z,15.10
2018-08-09T02:25:08.605Z,20.40
2018-08-09T02:27:37.250Z,18.47
2018-08-09T02:30:07.370Z,23.63
2018-08-09T02:32:36.118Z,15.83
2018-08-09T02:35:05.122Z,20.30
2018-08-09T02:37:33.813Z,14.20
2018-08-09T02:40:02.730Z,22.10
2018-08-09T02:42:31.577Z,13.33
2018-08-09T02:45:00.348Z,23.70
2018-08-09T02:47:29.518Z,29.63
2018-08-09T02:49:58.518Z,12.20
2018-08-09T02:52:27.983Z,14.00
2018-08-09T02:54:57.493Z,24.83
2018-08-09T02:57:26.969Z,19.20
2018-08-09T02:59:56.514Z,14.27
2018-08-09T03:02:25.218Z,18.70
2018-08-09T03:04:54.190Z,25.47
2018-08-09T03:07:23.004Z,18.00
2018-08-09T03:09:52.227Z,15.10
2018-08-09T03:12:21.117Z,15.50
2018-08-09T03:14:50.090Z,24.07
2018-08-09T03:17:18.790Z,19.33
2018-08-09T03:19:47.506Z,14.43
2018-08-09T03:22:16.546Z,17.83
2018-08-09T03:24:45.363Z,16.20
2018-08-09T03:27:14.197Z,14.53
2018-08-09T03:29:43.128Z,17.27
2018-08-09T03:32:11.881Z,13.20
2018-08-09T03:34:40.570Z,24.13
2018-08-09T03:37:09.586Z,11.77
2018-08-09T03:39:38.361Z,20.77
2018-08-09T03:42:07.154Z,13.27
2018-08-09T03:44:35.954Z,14.83
2018-08-09T03:47:04.713Z,18.33
2018-08-09T03:49:33.483Z,19.20
2018-08-09T03:52:02.194Z,23.67
2018-08-09T03:54:30.867Z,19.90
2018-08-09T03:56:59.674Z,18.37
2018-08-09T03:59:28.410Z,17.50
2018-08-09T04:01:57.289Z,17.77
2018-08-09T04:04:25.979Z,17.90
2018-08-09T04:06:54.981Z,16.13
2018-08-09T04:09:23.725Z,19.70
2018-08-09T04:11:52.468Z,20.30
2018-08-09T04:14:21.430Z,16.23
2018-08-09T04:16:50.095Z,20.27
2018-08-09T04:19:18.759Z,20.13
2018-08-09T04:21:47.500Z,17.20
2018-08-09T04:24:16.365Z,23.13
2018-08-09T04:26:45.172Z,22.07
2018-08-09T04:29:13.909Z,16.80
2018-08-09T04:31:42.738Z,29.07
2018-08-09T04:34:11.434Z,36.57
2018-08-09T04:36:40.077Z,20.73
2018-08-09T04:39:09.969Z,21.33
2018-08-09T04:41:38.684Z,13.93
2018-08-09T04:44:07.709Z,22.33
2018-08-09T04:46:36.482Z,13.57
2018-08-09T04:49:05.374Z,11.40
2018-08-09T04:51:34.118Z,21.03
2018-08-09T04:54:02.846Z,18.40
2018-08-09T04:56:31.672Z,21.53
2018-08-09T04:59:00.458Z,32.23
2018-08-09T05:01:29.198Z,17.03
2018-08-09T05:03:57.910Z,22.83
2018-08-09T05:06:26.635Z,28.50
2018-08-09T05:08:55.403Z,17.27
2018-08-09T05:11:24.202Z,16.40
2018-08-09T05:13:52.995Z,20.60
2018-08-09T05:16:21.773Z,19.20
2018-08-09T05:18:50.590Z,17.37
2018-08-09T05:21:19.522Z,25.73
2018-08-09T05:23:48.462Z,20.93
2018-08-09T05:26:17.193Z,18.67
2018-08-09T05:28:46.028Z,22.30
2018-08-09T05:31:14.769Z,23.07
2018-08-09T05:33:43.518Z,29.60
2018-08-09T05:36:12.281Z,15.83
2018-08-09T05:38:41.038Z,17.70
2018-08-09T05:41:10.077Z,23.70
2018-08-09T05:43:38.733Z,20.57
2018-08-09T05:46:07.662Z,15.70
2018-08-09T05:48:36.434Z,18.93
2018-08-09T05:51:05.240Z,16.30
2018-08-09T05:53:34.222Z,11.23
2018-08-09T05:56:02.982Z,26.67
2018-08-09T09:36:51.053Z,9.00
2018-08-09T09:39:19.807Z,31.93
2018-08-09T09:41:48.636Z,4.23
2018-08-09T09:44:17.466Z,5.70
2018-08-09T09:46:46.286Z,6.17
2018-08-09T09:49:15.261Z,4.20
2018-08-09T09:51:43.999Z,9.60
2018-08-09T09:54:12.949Z,4.67
2018-08-09T09:56:41.674Z,3.93
2018-08-09T09:59:10.482Z,5.93
2018-08-09T10:01:39.349Z,10.00
2018-08-09T10:04:13.169Z,5.37
2018-08-09T10:06:42.261Z,3.23
2018-08-09T10:09:12.201Z,5.00
2018-08-09T10:11:41.240Z,5.43
2018-08-09T10:14:10.008Z,4.00
2018-08-09T10:16:38.784Z,10.53
2018-08-09T10:19:07.704Z,4.27
2018-08-09T10:21:37.045Z,5.23
2018-08-09T10:24:05.852Z,7.10
2018-08-09T10:26:34.893Z,3.33
2018-08-09T10:29:03.703Z,5.23
2018-08-09T10:31:33.863Z,3.60
2018-08-09T10:34:02.905Z,3.40
2018-08-09T10:36:31.796Z,5.93
2018-08-09T10:39:00.748Z,6.20
2018-08-09T10:41:29.563Z,3.23
2018-08-09T10:43:58.211Z,2.60
2018-08-09T10:46:27.021Z,4.57
2018-08-09T10:48:55.791Z,3.23
2018-08-09T10:51:25.022Z,5.23
2018-08-09T10:53:53.876Z,3.20
2018-08-09T10:56:24.901Z,5.30
2018-08-09T10:58:53.687Z,5.57
2018-08-09T11:01:22.523Z,3.00
2018-08-09T11:03:51.201Z,5.00
2018-08-09T11:06:20.157Z,4.83
2018-08-09T11:08:48.951Z,3.57
2018-08-09T11:11:17.652Z,5.30
2018-08-09T11:13:46.741Z,11.33
2018-08-09T11:16:16.299Z,7.43
2018-08-09T11:18:45.777Z,4.10
2018-08-09T11:21:15.105Z,7.83
2018-08-09T11:23:43.935Z,3.43
2018-08-09T11:26:12.648Z,5.57
2018-08-09T11:28:41.409Z,6.60
2018-08-09T11:31:10.468Z,5.70
2018-08-09T11:33:39.446Z,3.93
2018-08-09T11:36:08.171Z,3.20
2018-08-09T11:38:36.901Z,4.07
2018-08-09T11:41:05.593Z,4.20
2018-08-09T11:43:34.361Z,6.43
2018-08-09T11:46:03.293Z,7.83
2018-08-09T11:48:32.477Z,3.07
2018-08-09T11:51:01.397Z,9.37
2018-08-09T11:53:30.085Z,7.37
2018-08-09T11:55:58.843Z,4.63
2018-08-09T11:58:27.857Z,8.57
2018-08-09T12:00:56.497Z,4.13
2018-08-09T12:03:25.357Z,9.60
2018-08-09T12:05:54.560Z,4.53
2018-08-09T12:08:23.432Z,5.80
2018-08-09T12:10:52.311Z,2.93
2018-08-09T12:13:21.302Z,5.03
2018-08-09T12:15:51.251Z,4.30
2018-08-09T12:18:20.127Z,5.00
2018-08-09T12:20:49.009Z,3.97
2018-08-09T12:23:17.753Z,3.23
2018-08-09T12:25:46.725Z,3.80
2018-08-09T12:28:15.469Z,4.40
2018-08-09T12:30:44.173Z,7.63
2018-08-09T12:33:13.151Z,5.80
2018-08-09T12:35:42.665Z,5.20
2018-08-09T12:38:11.442Z,2.93
2018-08-09T12:40:40.194Z,4.00
2018-08-09T12:43:08.930Z,4.43
2018-08-09T12:45:37.981Z,2.33
2018-08-09T12:48:07.272Z,5.27
2018-08-09T12:50:36.443Z,3.63
2018-08-09T12:53:05.861Z,3.10
2018-08-09T12:55:34.801Z,2.60
2018-08-09T12:58:03.622Z,6.30
2018-08-09T13:00:32.479Z,2.80
2018-08-09T13:03:01.158Z,4.07
2018-08-09T13:05:30.067Z,6.03
2018-08-09T13:07:58.945Z,4.17
2018-08-09T13:10:27.657Z,2.40
2018-08-09T13:12:56.473Z,3.37
2018-08-09T13:15:26.382Z,5.87
2018-08-09T13:17:55.239Z,6.23
2018-08-09T13:20:24.160Z,9.67
2018-08-09T13:22:52.889Z,3.63
2018-08-09T13:25:21.749Z,2.57
2018-08-09T13:27:50.604Z,7.37
2018-08-09T13:30:19.381Z,4.80
2018-08-09T13:32:48.065Z,6.77
2018-08-09T13:35:16.799Z,12.70
2018-08-09T13:37:45.686Z,3.23
2018-08-09T13:40:14.480Z,3.90
2018-08-09T13:42:43.237Z,4.47
2018-08-09T13:45:15.023Z,6.27
2018-08-09T13:47:43.978Z,2.23
2018-08-09T13:50:13.273Z,3.37
2018-08-09T13:52:42.748Z,4.47
2018-08-09T13:55:13.806Z,3.43
2018-08-09T13:57:42.567Z,4.07
2018-08-09T14:00:12.941Z,11.20
2018-08-09T14:02:43.585Z,4.30
2018-08-09T14:05:12.504Z,3.63
2018-08-09T14:07:43.063Z,6.10
2018-08-09T14:10:12.341Z,4.63
2018-08-09T14:12:42.141Z,6.50
2018-08-09T14:15:12.518Z,5.53
2018-08-09T14:17:41.221Z,7.07
2018-08-09T14:20:15.675Z,4.63
2018-08-09T14:22:44.462Z,8.20
2018-08-09T14:25:13.762Z,5.93
2018-08-09T14:27:42.773Z,10.67
2018-08-09T14:30:13.703Z,5.73
2018-08-09T14:32:43.125Z,4.73
2018-08-09T14:35:13.581Z,6.37
2018-08-09T14:37:42.974Z,13.53
2018-08-09T14:40:12.531Z,3.60
2018-08-09T14:42:41.398Z,29.40
2018-08-09T14:45:15.829Z,7.67
2018-08-09T14:47:44.824Z,6.23
2018-08-09T14:50:13.789Z,7.30
2018-08-09T14:52:43.023Z,6.80
2018-08-09T14:55:13.380Z,4.90
2018-08-09T14:57:43.088Z,9.57
2018-08-09T15:00:16.485Z,4.00
2018-08-09T15:02:46.294Z,5.33
2018-08-09T15:05:16.521Z,5.60
2018-08-09T15:07:46.098Z,12.00
2018-08-09T15:10:16.278Z,3.50
2018-08-09T15:12:45.455Z,8.60
2018-08-09T15:15:14.481Z,8.10
2018-08-09T15:17:43.276Z,3.97
2018-08-09T15:20:14.184Z,9.50
2018-08-09T15:22:43.697Z,9.30
2018-08-09T15:25:12.927Z,8.10
2018-08-09T15:27:41.722Z,4.70
2018-08-09T15:30:16.690Z,7.60
2018-08-09T15:32:45.563Z,10.73
2018-08-09T15:35:15.201Z,10.33
2018-08-09T15:37:44.275Z,13.13
2018-08-09T15:40:13.664Z,10.90
2018-08-09T15:42:42.576Z,11.90
2018-08-09T15:45:13.391Z,7.17
2018-08-09T15:47:43.084Z,47.03
2018-08-09T15:50:17.445Z,38.87
2018-08-09T15:52:46.864Z,37.67
2018-08-09T15:55:16.917Z,21.83
2018-08-09T15:57:45.996Z,27.80
2018-08-09T16:00:18.842Z,28.70
2018-08-09T16:02:47.856Z,26.30
2018-08-09T16:05:16.913Z,26.53
2018-08-09T16:07:46.134Z,9.97
2018-08-09T16:10:16.092Z,18.93
2018-08-09T16:12:45.899Z,21.30
2018-08-09T16:15:17.305Z,7.87
2018-08-09T16:17:47.452Z,20.47
2018-08-09T16:20:16.450Z,8.63
2018-08-09T16:22:46.125Z,15.47
2018-08-09T16:25:18.325Z,8.67
2018-08-09T16:27:47.709Z,9.30
2018-08-09T16:30:23.150Z,13.23
2018-08-09T16:32:52.158Z,18.33
2018-08-09T16:35:21.374Z,16.37
2018-08-09T16:37:50.517Z,7.67
2018-08-09T16:40:21.630Z,7.30
2018-08-09T16:42:50.377Z,18.00
2018-08-09T16:45:20.431Z,8.53
2018-08-09T16:47:49.913Z,5.70
2018-08-09T16:50:20.871Z,14.43
2018-08-09T16:52:50.771Z,6.10
2018-08-09T16:55:20.930Z,14.40
2018-08-09T16:57:49.689Z,7.00
2018-08-09T17:00:20.929Z,20.37
2018-08-09T17:02:50.144Z,9.47
2018-08-09T17:05:21.386Z,8.03
2018-08-09T17:07:50.749Z,7.63
2018-08-09T17:10:21.712Z,15.93
2018-08-09T17:12:50.625Z,5.07
2018-08-09T17:15:21.677Z,7.80
2018-08-09T17:17:50.755Z,9.00
2018-08-09T17:20:22.979Z,8.07
2018-08-09T17:22:51.819Z,25.50
2018-08-09T17:25:20.791Z,6.40
2018-08-09T17:27:50.177Z,15.37
2018-08-09T17:30:21.933Z,10.03
2018-08-09T17:32:50.749Z,23.20
2018-08-09T17:35:20.268Z,7.53
